createdAt,value
2023-04-02T00:00:11.974Z,10.87
2023-04-02T00:03:08.704Z,10.98
2023-04-02T00:05:37.275Z,11.06
2023-04-02T00:08:19.595Z,11.13
2023-04-02T00:11:00.962Z,11.34
2023-04-02T00:13:34.586Z,11.58
2023-04-02T00:16:06.830Z,11.77
2023-04-02T00:18:40.688Z,11.95
2023-04-02T00:21:17.378Z,12.01
2023-04-02T00:23:45.903Z,12.02
2023-04-02T00:26:43.525Z,12.09
2023-04-02T00:29:13.695Z,12.29
2023-04-02T00:31:45.045Z,12.39
2023-04-02T00:34:25.880Z,12.42
2023-04-02T00:36:54.494Z,12.42
2023-04-02T00:39:25.906Z,12.34
2023-04-02T00:42:05.287Z,12.33
2023-04-02T00:44:38.593Z,12.27
2023-04-02T00:47:20.338Z,12.19
2023-04-02T00:49:54.336Z,12.09
2023-04-02T00:52:27.978Z,11.92
2023-04-02T00:55:01.331Z,11.81
2023-04-02T00:57:29.759Z,11.78
2023-04-02T01:00:22.976Z,11.83
2023-04-02T01:03:28.749Z,11.96
2023-04-02T01:06:03.694Z,12.14
2023-04-02T01:08:34.851Z,12.29
2023-04-02T01:11:34.874Z,12.36
2023-04-02T01:14:12.244Z,12.40
2023-04-02T01:16:46.758Z,12.37
2023-04-02T01:19:27.514Z,12.30
2023-04-02T01:22:05.240Z,12.17
2023-04-02T01:24:37.438Z,12.09
2023-04-02T01:27:16.593Z,12.11
2023-04-02T01:29:56.767Z,11.97
2023-04-02T01:32:28.356Z,11.93
2023-04-02T01:34:58.450Z,11.89
2023-04-02T01:37:32.755Z,11.78
2023-04-02T01:40:06.559Z,11.63
2023-04-02T01:42:34.791Z,11.69
2023-04-02T01:45:09.120Z,11.80
2023-04-02T01:47:38.978Z,11.95
2023-04-02T01:50:25.829Z,12.07
2023-04-02T01:52:57.310Z,12.05
2023-04-02T01:55:33.654Z,11.99
2023-04-02T01:58:04.012Z,12.08
2023-04-02T02:00:34.684Z,12.15
2023-04-02T02:03:03.969Z,12.20
2023-04-02T02:05:32.950Z,12.31
2023-04-02T02:08:02.193Z,12.34
2023-04-02T02:10:38.998Z,12.30
2023-04-02T02:13:07.291Z,12.36
2023-04-02T02:15:36.574Z,12.29
2023-04-02T02:18:06.935Z,12.21
2023-04-02T02:20:36.295Z,12.16
2023-04-02T02:23:05.646Z,12.12
2023-04-02T02:25:36.473Z,12.10
2023-04-02T02:28:21.269Z,12.08
2023-04-02T02:30:54.358Z,12.12
2023-04-02T02:33:47.737Z,12.13
2023-04-02T02:36:25.121Z,12.09
2023-04-02T02:39:03.764Z,12.09
2023-04-02T02:41:56.389Z,12.10
2023-04-02T02:44:29.397Z,12.13
2023-04-02T02:47:04.561Z,12.07
2023-04-02T02:49:36.454Z,11.95
2023-04-02T02:52:08.803Z,11.99
2023-04-02T02:55:01.281Z,12.04
2023-04-02T02:57:37.654Z,11.97
2023-04-02T03:00:10.075Z,11.96
2023-04-02T03:02:40.627Z,12.07
2023-04-02T03:05:16.177Z,12.22
2023-04-02T03:07:44.970Z,12.28
2023-04-02T03:10:42.921Z,12.18
2023-04-02T03:13:26.670Z,12.23
2023-04-02T03:16:07.394Z,12.35
2023-04-02T03:18:59.581Z,12.34
2023-04-02T03:21:39.689Z,12.31
2023-04-02T03:24:37.499Z,12.38
2023-04-02T03:27:37.363Z,12.43
2023-04-02T03:30:37.243Z,12.34
2023-04-02T03:33:58.870Z,12.33
2023-04-02T03:36:52.229Z,12.24
2023-04-02T03:39:31.350Z,12.15
2023-04-02T03:42:07.000Z,11.98
2023-04-02T03:45:15.626Z,11.82
2023-04-02T03:48:13.081Z,11.69
2023-04-02T03:50:52.590Z,11.64
2023-04-02T03:53:25.209Z,11.50
2023-04-02T03:55:55.916Z,11.43
2023-04-02T03:58:42.146Z,11.36
2023-04-02T04:01:23.718Z,11.46
2023-04-02T04:04:02.009Z,11.58
2023-04-02T04:06:33.690Z,11.53
2023-04-02T04:09:11.485Z,11.51
2023-04-02T04:11:46.251Z,11.59
2023-04-02T04:14:19.509Z,11.69
2023-04-02T04:17:04.552Z,11.87
2023-04-02T04:19:45.741Z,11.99
2023-04-02T04:22:30.692Z,12.09
2023-04-02T04:25:07.682Z,12.21
2023-04-02T04:27:58.469Z,12.27
2023-04-02T04:30:44.150Z,12.29
2023-04-02T04:33:22.712Z,12.24
2023-04-02T04:36:03.726Z,12.31
2023-04-02T04:38:39.727Z,12.29
2023-04-02T04:41:19.595Z,12.14
2023-04-02T04:43:51.327Z,12.11
2023-04-02T04:46:31.224Z,12.11
2023-04-02T04:49:12.399Z,12.11
2023-04-02T04:51:56.425Z,12.21
2023-04-02T04:54:27.907Z,12.35
2023-04-02T04:57:01.872Z,12.49
2023-04-02T04:59:36.516Z,12.45
2023-04-02T05:02:19.848Z,12.41
2023-04-02T05:04:51.975Z,12.46
2023-04-02T05:07:37.048Z,12.54
2023-04-02T05:10:14.739Z,12.53
2023-04-02T05:12:54.682Z,12.52
2023-04-02T05:15:32.517Z,12.63
2023-04-02T05:18:44.483Z,12.71
2023-04-02T05:21:19.749Z,12.66
2023-04-02T05:23:51.579Z,12.72
2023-04-02T05:26:29.577Z,12.86
2023-04-02T05:29:16.327Z,13.01
2023-04-02T05:31:54.650Z,13.05
2023-04-02T05:34:33.537Z,13.10
2023-04-02T05:37:02.587Z,13.27
2023-04-02T05:39:32.889Z,13.40
2023-04-02T05:42:08.451Z,13.64
2023-04-02T05:45:07.184Z,13.66
2023-04-02T05:47:41.308Z,13.59
2023-04-02T05:50:25.464Z,13.51
2023-04-02T05:53:09.383Z,13.52
2023-04-02T05:55:49.128Z,13.47
2023-04-02T05:58:37.028Z,13.52
2023-04-02T06:01:45.589Z,13.48
2023-04-02T06:04:47.051Z,13.63
2023-04-02T06:07:23.129Z,13.64
2023-04-02T06:10:29.283Z,13.77
2023-04-02T06:13:03.741Z,14.02
2023-04-02T06:15:38.002Z,14.23
2023-04-02T06:18:20.207Z,14.51
2023-04-02T06:20:49.902Z,14.79
2023-04-02T06:23:23.445Z,15.02
2023-04-02T06:26:00.793Z,15.18
2023-04-02T06:28:42.269Z,15.31
2023-04-02T06:31:27.871Z,15.45
2023-04-02T06:33:57.177Z,15.68
2023-04-02T06:36:28.747Z,15.95
2023-04-02T06:39:07.941Z,16.09
2023-04-02T06:41:36.838Z,16.31
2023-04-02T06:44:28.310Z,16.68
2023-04-02T06:47:11.931Z,16.92
2023-04-02T06:49:48.388Z,16.85
2023-04-02T06:52:26.972Z,16.98
2023-04-02T06:54:55.418Z,16.92
2023-04-02T06:57:25.287Z,16.84
2023-04-02T06:59:54.728Z,16.89
2023-04-02T07:02:35.555Z,16.91
2023-04-02T07:05:11.851Z,16.90
2023-04-02T07:07:46.109Z,17.00
2023-04-02T07:10:15.726Z,16.71
2023-04-02T07:12:43.946Z,16.40
2023-04-02T07:15:19.998Z,16.41
2023-04-02T07:17:49.042Z,16.40
2023-04-02T07:20:38.953Z,16.34
2023-04-02T07:23:10.443Z,16.41
2023-04-02T07:25:38.468Z,16.67
2023-04-02T07:28:06.712Z,16.75
2023-04-02T07:30:35.547Z,16.72
2023-04-02T07:33:03.717Z,16.46
2023-04-02T07:35:32.178Z,16.21
2023-04-02T07:38:00.553Z,15.92
2023-04-02T07:40:28.632Z,15.68
2023-04-02T07:42:56.898Z,15.66
2023-04-02T07:45:24.968Z,15.69
2023-04-02T07:47:53.906Z,15.87
2023-04-02T07:50:23.036Z,15.81
2023-04-02T07:52:51.106Z,15.92
2023-04-02T07:55:19.084Z,16.06
2023-04-02T07:57:52.615Z,16.00
2023-04-02T08:00:23.102Z,16.09
2023-04-02T08:02:52.824Z,16.04
2023-04-02T08:05:20.992Z,16.09
2023-04-02T08:07:56.229Z,16.19
2023-04-02T08:10:25.097Z,16.52
2023-04-02T08:12:53.496Z,17.31
2023-04-02T08:15:21.873Z,17.76
2023-04-02T08:17:50.006Z,18.17
2023-04-02T08:20:22.941Z,18.50
2023-04-02T08:22:51.224Z,18.79
2023-04-02T08:25:19.572Z,18.91
2023-04-02T08:27:48.798Z,19.14
2023-04-02T08:30:18.189Z,19.12
2023-04-02T08:32:46.545Z,19.35
2023-04-02T08:35:16.913Z,19.72
2023-04-02T08:37:45.174Z,19.72
2023-04-02T08:40:23.218Z,19.82
2023-04-02T08:43:22.343Z,19.94
2023-04-02T08:46:00.625Z,19.86
2023-04-02T08:48:32.725Z,19.88
2023-04-02T08:51:02.769Z,19.60
2023-04-02T08:53:35.074Z,19.88
2023-04-02T08:56:18.000Z,19.93
2023-04-02T08:58:54.438Z,19.93
2023-04-02T09:01:41.737Z,20.05
2023-04-02T09:04:23.390Z,20.06
2023-04-02T09:06:55.516Z,19.54
2023-04-02T09:09:25.060Z,19.51
2023-04-02T09:11:55.024Z,19.27
2023-04-02T09:14:58.789Z,19.12
2023-04-02T09:17:27.630Z,18.96
2023-04-02T09:20:17.381Z,18.93
2023-04-02T09:22:48.627Z,18.95
2023-04-02T09:25:22.125Z,18.84
2023-04-02T09:27:53.344Z,18.76
2023-04-02T09:31:02.311Z,18.47
2023-04-02T09:33:51.002Z,18.51
2023-04-02T09:36:19.050Z,18.25
2023-04-02T09:39:07.387Z,18.27
2023-04-02T09:41:37.200Z,18.24
2023-04-02T09:44:26.282Z,18.42
2023-04-02T09:47:00.295Z,18.60
2023-04-02T09:49:34.959Z,18.48
2023-04-02T09:52:18.156Z,18.37
2023-04-02T09:55:06.088Z,18.37
2023-04-02T09:57:34.242Z,18.63
2023-04-02T10:00:32.243Z,18.67
2023-04-02T10:03:33.242Z,18.44
2023-04-02T10:06:16.464Z,18.31
2023-04-02T10:08:45.698Z,18.38
2023-04-02T10:11:20.081Z,18.39
2023-04-02T10:14:12.227Z,18.43
2023-04-02T10:16:58.217Z,18.64
2023-04-02T10:19:41.085Z,18.71
2023-04-02T10:22:21.083Z,18.66
2023-04-02T10:24:50.790Z,18.95
2023-04-02T10:27:26.328Z,19.16
2023-04-02T10:30:40.276Z,19.37
2023-04-02T10:33:20.230Z,19.65
2023-04-02T10:35:51.061Z,19.65
2023-04-02T10:38:28.322Z,19.62
2023-04-02T10:41:05.666Z,19.45
2023-04-02T10:43:47.085Z,19.45
2023-04-02T10:46:24.472Z,19.47
2023-04-02T10:49:12.463Z,19.45
2023-04-02T10:51:56.291Z,19.33
2023-04-02T10:54:46.586Z,19.35
2023-04-02T10:57:26.959Z,19.47
2023-04-02T11:00:08.270Z,19.59
2023-04-02T11:03:00.244Z,19.57
2023-04-02T11:05:32.964Z,19.50
2023-04-02T11:08:07.781Z,19.52
2023-04-02T11:10:40.723Z,19.53
2023-04-02T11:13:29.110Z,19.41
2023-04-02T11:15:57.321Z,19.15
2023-04-02T11:18:36.130Z,19.18
2023-04-02T11:21:25.829Z,19.21
2023-04-02T11:24:03.903Z,19.41
2023-04-02T11:26:41.315Z,19.66
2023-04-02T11:29:19.396Z,19.86
2023-04-02T11:31:49.718Z,19.93
2023-04-02T11:34:49.552Z,19.83
2023-04-02T11:37:45.838Z,19.98
2023-04-02T11:40:14.171Z,20.05
2023-04-02T11:42:50.583Z,20.07
2023-04-02T11:45:21.644Z,20.19
2023-04-02T11:48:13.159Z,20.37
2023-04-02T11:50:44.193Z,20.43
2023-04-02T11:53:12.343Z,20.48
2023-04-02T11:55:43.026Z,20.21
2023-04-02T11:58:22.966Z,20.34
2023-04-02T12:01:15.788Z,20.18
2023-04-02T12:04:21.423Z,20.05
2023-04-02T12:06:49.611Z,19.82
2023-04-02T12:09:24.136Z,19.80
2023-04-02T12:11:54.972Z,19.88
2023-04-02T12:14:38.278Z,19.93
2023-04-02T12:17:18.892Z,19.99
2023-04-02T12:19:53.097Z,19.56
2023-04-02T12:22:28.090Z,19.39
2023-04-02T12:25:00.589Z,18.92
2023-04-02T12:27:30.283Z,18.51
2023-04-02T12:30:18.848Z,18.18
2023-04-02T12:32:48.014Z,18.41
2023-04-02T12:35:29.404Z,18.50
2023-04-02T12:37:58.163Z,18.58
2023-04-02T12:40:27.320Z,18.43
2023-04-02T12:42:55.585Z,18.11
2023-04-02T12:45:29.333Z,18.19
2023-04-02T12:47:58.521Z,18.39
2023-04-02T12:50:26.856Z,18.44
2023-04-02T12:52:58.426Z,18.64
2023-04-02T12:55:27.507Z,18.54
2023-04-02T12:57:57.665Z,18.54
2023-04-02T13:00:25.799Z,18.51
2023-04-02T13:03:06.234Z,18.46
2023-04-02T13:05:39.718Z,18.67
2023-04-02T13:08:17.489Z,18.58
2023-04-02T13:10:52.142Z,18.17
2023-04-02T13:13:27.991Z,17.87
2023-04-02T13:16:02.934Z,17.95
2023-04-02T13:18:33.497Z,18.05
2023-04-02T13:21:07.098Z,18.15
2023-04-02T13:23:37.795Z,18.17
2023-04-02T13:26:08.773Z,18.23
2023-04-02T13:28:37.668Z,18.23
2023-04-02T13:31:05.878Z,18.27
2023-04-02T13:33:34.043Z,17.99
2023-04-02T13:36:02.320Z,17.59
2023-04-02T13:38:30.434Z,17.18
2023-04-02T13:40:58.832Z,17.02
2023-04-02T13:43:26.900Z,16.59
2023-04-02T13:45:58.386Z,16.48
2023-04-02T13:48:28.985Z,16.55
2023-04-02T13:50:57.160Z,16.34
2023-04-02T13:53:32.835Z,16.24
2023-04-02T13:56:01.101Z,16.38
2023-04-02T13:58:29.075Z,16.51
2023-04-02T14:00:57.342Z,16.63
2023-04-02T14:03:26.026Z,16.75
2023-04-02T14:06:24.230Z,16.80
2023-04-02T14:09:22.068Z,16.59
2023-04-02T14:11:59.045Z,16.56
2023-04-02T14:15:00.721Z,16.38
2023-04-02T14:17:37.505Z,16.35
2023-04-02T14:20:13.650Z,16.24
2023-04-02T14:22:41.637Z,16.02
2023-04-02T14:25:47.766Z,16.03
2023-04-02T14:28:38.199Z,16.06
2023-04-02T14:31:34.129Z,16.20
2023-04-02T14:34:38.913Z,16.21
2023-04-02T14:37:18.159Z,16.12
2023-04-02T14:40:05.699Z,16.08
2023-04-02T14:42:36.611Z,16.06
2023-04-02T14:45:24.850Z,16.07
2023-04-02T14:48:03.450Z,16.04
2023-04-02T14:50:38.924Z,15.97
2023-04-02T14:53:18.560Z,15.85
2023-04-02T14:55:49.515Z,15.83
2023-04-02T14:58:29.717Z,15.78
2023-04-02T15:01:36.849Z,15.64
2023-04-02T15:04:11.062Z,15.47
2023-04-02T15:06:47.696Z,15.39
2023-04-02T15:09:24.085Z,15.45
2023-04-02T15:11:56.811Z,15.45
2023-04-02T15:14:33.552Z,15.57
2023-04-02T15:17:01.645Z,15.74
2023-04-02T15:19:30.052Z,15.77
2023-04-02T15:22:32.370Z,15.82
2023-04-02T15:25:18.561Z,15.80
2023-04-02T15:28:07.368Z,15.77
2023-04-02T15:30:44.295Z,15.79
2023-04-02T15:33:33.986Z,15.86
2023-04-02T15:36:14.760Z,15.97
2023-04-02T15:38:52.445Z,16.12
2023-04-02T15:41:32.237Z,16.22
2023-04-02T15:44:13.257Z,16.17
2023-04-02T15:47:12.151Z,16.04
2023-04-02T15:49:56.943Z,15.83
2023-04-02T15:52:34.301Z,15.56
2023-04-02T15:55:24.572Z,15.41
2023-04-02T15:58:10.379Z,15.20
2023-04-02T16:01:03.039Z,15.12
2023-04-02T16:03:43.270Z,15.07
2023-04-02T16:06:43.846Z,15.07
2023-04-02T16:09:34.357Z,15.02
2023-04-02T16:12:15.940Z,14.88
2023-04-02T16:14:47.762Z,14.71
2023-04-02T16:17:26.412Z,14.62
2023-04-02T16:20:15.854Z,14.50
2023-04-02T16:23:00.108Z,14.38
2023-04-02T16:25:39.089Z,14.23
2023-04-02T16:28:22.119Z,14.09
2023-04-02T16:31:02.711Z,13.95
2023-04-02T16:33:56.899Z,13.80
2023-04-02T16:36:43.017Z,13.68
2023-04-02T16:39:36.761Z,13.57
2023-04-02T16:42:25.102Z,13.57
2023-04-02T16:45:19.361Z,13.58
2023-04-02T16:47:59.407Z,13.57
2023-04-02T16:51:11.145Z,13.50
2023-04-02T16:54:02.321Z,13.46
2023-04-02T16:56:52.520Z,13.44
2023-04-02T16:59:29.735Z,13.45
2023-04-02T17:02:13.117Z,13.38
2023-04-02T17:05:08.672Z,13.39
2023-04-02T17:07:53.021Z,13.33
2023-04-02T17:10:31.764Z,13.32
2023-04-02T17:13:19.167Z,13.29
2023-04-02T17:15:59.474Z,13.31
2023-04-02T17:18:27.727Z,13.30
2023-04-02T17:21:09.011Z,13.32
2023-04-02T17:24:01.973Z,13.35
2023-04-02T17:26:34.940Z,13.18
2023-04-02T17:29:09.264Z,13.27
2023-04-02T17:31:40.874Z,13.30
2023-04-02T17:34:22.813Z,13.32
2023-04-02T17:37:06.316Z,13.18
2023-04-02T17:40:00.703Z,13.05
2023-04-02T17:42:38.093Z,12.96
2023-04-02T17:45:34.604Z,12.83
2023-04-02T17:48:09.439Z,12.58
2023-04-02T17:50:44.085Z,12.61
2023-04-02T17:53:22.912Z,12.57
2023-04-02T17:56:09.841Z,12.44
2023-04-02T17:59:05.739Z,12.23
2023-04-02T18:01:40.879Z,12.21
2023-04-02T18:04:24.109Z,12.13
2023-04-02T18:07:12.092Z,12.09
2023-04-02T18:09:49.592Z,12.16
2023-04-02T18:12:23.476Z,12.32
2023-04-02T18:15:10.456Z,12.33
2023-04-02T18:17:51.702Z,12.23
2023-04-02T18:20:27.904Z,12.15
2023-04-02T18:23:08.452Z,12.19
2023-04-02T18:26:27.937Z,12.29
2023-04-02T18:29:19.554Z,12.35
2023-04-02T18:31:57.824Z,12.36
2023-04-02T18:34:50.302Z,12.42
2023-04-02T18:37:47.793Z,12.43
2023-04-02T18:40:35.907Z,12.60
2023-04-02T18:43:19.281Z,12.72
2023-04-02T18:46:22.584Z,12.85
2023-04-02T18:49:15.554Z,12.88
2023-04-02T18:51:44.359Z,12.85
2023-04-02T18:54:43.382Z,12.85
2023-04-02T18:57:20.665Z,12.92
2023-04-02T19:00:23.745Z,12.89
2023-04-02T19:03:13.802Z,12.90
2023-04-02T19:05:49.806Z,12.89
2023-04-02T19:08:28.306Z,12.87
2023-04-02T19:11:06.935Z,12.86
2023-04-02T19:13:35.619Z,12.89
2023-04-02T19:16:09.888Z,12.93
2023-04-02T19:19:03.390Z,12.92
2023-04-02T19:21:50.406Z,12.86
2023-04-02T19:24:52.466Z,12.74
2023-04-02T19:27:58.351Z,12.62
2023-04-02T19:31:09.088Z,12.46
2023-04-02T19:33:57.344Z,12.57
2023-04-02T19:37:04.836Z,12.66
2023-04-02T19:39:46.977Z,12.68
2023-04-02T19:42:41.844Z,12.77
2023-04-02T19:45:39.410Z,12.92
2023-04-02T19:48:14.003Z,12.93
2023-04-02T19:50:42.273Z,12.78
2023-04-02T19:53:10.773Z,12.72
2023-04-02T19:55:41.208Z,12.71
2023-04-02T19:58:24.740Z,12.57
2023-04-02T20:00:53.029Z,12.53
2023-04-02T20:03:21.706Z,12.38
2023-04-02T20:05:49.800Z,12.16
2023-04-02T20:08:18.252Z,11.97
2023-04-02T20:10:46.636Z,11.74
2023-04-02T20:13:14.715Z,11.54
2023-04-02T20:15:42.988Z,11.41
2023-04-02T20:18:11.684Z,11.35
2023-04-02T20:20:39.961Z,11.31
2023-04-02T20:23:08.389Z,11.22
2023-04-02T20:25:36.724Z,11.16
2023-04-02T20:28:04.877Z,11.17
2023-04-02T20:30:33.266Z,11.19
2023-04-02T20:33:02.439Z,11.35
2023-04-02T20:35:34.596Z,11.52
2023-04-02T20:38:06.578Z,11.65
2023-04-02T20:40:35.436Z,11.64
2023-04-02T20:43:03.847Z,11.66
2023-04-02T20:45:32.538Z,11.76
2023-04-02T20:48:00.862Z,11.98
2023-04-02T20:50:29.691Z,12.12
2023-04-02T20:52:58.832Z,12.26
2023-04-02T20:55:26.881Z,12.35
2023-04-02T20:57:55.132Z,12.37
2023-04-02T21:00:23.502Z,12.34
2023-04-02T21:02:51.820Z,12.30
2023-04-02T21:05:20.134Z,12.19
2023-04-02T21:07:49.456Z,12.07
2023-04-02T21:10:17.526Z,11.87
2023-04-02T21:12:45.909Z,11.63
2023-04-02T21:15:13.979Z,11.47
2023-04-02T21:17:42.500Z,11.31
2023-04-02T21:20:12.117Z,11.12
2023-04-02T21:22:40.952Z,11.02
2023-04-02T21:25:09.532Z,11.06
2023-04-02T21:27:37.814Z,11.16
2023-04-02T21:30:06.708Z,11.20
2023-04-02T21:32:35.015Z,11.24
2023-04-02T21:35:03.306Z,11.39
2023-04-02T21:37:31.416Z,11.56
2023-04-02T21:39:59.588Z,11.56
2023-04-02T21:42:27.973Z,11.57
2023-04-02T21:44:56.545Z,11.62
2023-04-02T21:47:25.142Z,11.60
2023-04-02T21:49:53.374Z,11.49
2023-04-02T21:52:21.582Z,11.38
2023-04-02T21:54:49.689Z,11.18
2023-04-02T21:57:18.945Z,11.08
2023-04-02T21:59:47.226Z,11.04
2023-04-02T22:02:16.222Z,11.14
2023-04-02T22:04:45.224Z,11.28
2023-04-02T22:07:13.315Z,11.48
2023-04-02T22:09:41.969Z,11.72
2023-04-02T22:12:09.943Z,11.94
2023-04-02T22:14:38.028Z,12.08
2023-04-02T22:17:07.583Z,12.14
2023-04-02T22:19:35.960Z,12.18
2023-04-02T22:22:04.263Z,12.27
2023-04-02T22:24:32.336Z,12.28
2023-04-02T22:27:00.820Z,12.21
2023-04-02T22:29:28.855Z,12.18
2023-04-02T22:31:57.144Z,12.09
2023-04-02T22:34:25.435Z,11.99
2023-04-02T22:36:53.627Z,11.93
2023-04-02T22:39:21.802Z,11.77
2023-04-02T22:41:49.847Z,11.85
2023-04-02T22:44:18.006Z,11.91
2023-04-02T22:46:46.717Z,11.90
2023-04-02T22:49:19.511Z,11.96
2023-04-02T22:51:48.069Z,12.06
2023-04-02T22:54:16.558Z,12.15
2023-04-02T22:56:44.720Z,12.21
2023-04-02T22:59:13.101Z,12.21
2023-04-02T23:01:41.701Z,12.06
2023-04-02T23:04:09.966Z,11.90
2023-04-02T23:06:38.140Z,11.78
2023-04-02T23:09:06.624Z,11.75
2023-04-02T23:11:35.007Z,11.81
2023-04-02T23:14:03.368Z,11.86
2023-04-02T23:16:31.958Z,11.73
2023-04-02T23:19:00.025Z,11.80
2023-04-02T23:21:28.135Z,11.89
2023-04-02T23:23:56.416Z,11.85
2023-04-02T23:26:30.704Z,11.57
2023-04-02T23:29:00.867Z,11.47
2023-04-02T23:31:29.114Z,11.41
2023-04-02T23:33:57.232Z,11.48
2023-04-02T23:36:26.779Z,11.64
2023-04-02T23:38:58.124Z,11.73
2023-04-02T23:41:27.205Z,11.84
2023-04-02T23:43:56.337Z,11.88
2023-04-02T23:46:24.978Z,11.77
2023-04-02T23:48:54.392Z,11.65
2023-04-02T23:51:23.295Z,11.58
2023-04-02T23:53:52.821Z,11.51
2023-04-02T23:56:22.102Z,11.28
2023-04-02T23:58:51.170Z,11.04
